createdAt,value
2019-03-23T00:01:41.898Z,6.40
2019-03-23T00:04:10.415Z,6.40
2019-03-23T00:06:38.847Z,6.30
2019-03-23T00:09:07.836Z,6.30
2019-03-23T00:11:36.262Z,6.30
2019-03-23T00:14:04.870Z,6.20
2019-03-23T00:16:33.342Z,6.20
2019-03-23T00:19:01.787Z,6.10
2019-03-23T00:21:30.243Z,6.10
2019-03-23T00:23:58.787Z,6.00
2019-03-23T00:26:27.573Z,6.00
2019-03-23T00:28:56.062Z,6.00
2019-03-23T00:31:24.823Z,6.00
2019-03-23T00:33:53.254Z,5.90
2019-03-23T00:36:21.715Z,5.90
2019-03-23T00:38:50.179Z,5.90
2019-03-23T00:41:18.623Z,5.80
2019-03-23T00:43:47.353Z,5.70
2019-03-23T00:46:15.809Z,5.70
2019-03-23T00:48:44.238Z,5.70
2019-03-23T00:51:12.678Z,5.80
2019-03-23T00:53:41.237Z,5.80
2019-03-23T00:56:09.671Z,5.80
2019-03-23T00:58:38.108Z,5.80
2019-03-23T01:01:06.593Z,5.80
2019-03-23T01:03:35.038Z,5.80
2019-03-23T01:06:03.471Z,5.80
2019-03-23T01:08:32.042Z,5.70
2019-03-23T01:11:00.474Z,5.80
2019-03-23T01:13:28.910Z,5.70
2019-03-23T01:15:57.374Z,5.70
2019-03-23T01:18:25.816Z,5.60
2019-03-23T01:20:54.353Z,5.70
2019-03-23T01:23:22.818Z,5.60
2019-03-23T01:25:51.256Z,5.60
2019-03-23T01:28:19.711Z,5.60
2019-03-23T01:30:48.472Z,5.50
2019-03-23T01:33:16.983Z,5.50
2019-03-23T01:35:45.412Z,5.40
2019-03-23T01:38:14.223Z,5.40
2019-03-23T01:40:42.742Z,5.40
2019-03-23T01:43:11.241Z,5.40
2019-03-23T01:45:39.724Z,5.40
2019-03-23T01:48:08.479Z,5.40
2019-03-23T01:50:36.990Z,5.40
2019-03-23T01:53:05.472Z,5.40
2019-03-23T01:55:33.922Z,5.40
2019-03-23T01:58:02.353Z,5.40
2019-03-23T02:00:30.885Z,5.30
2019-03-23T02:02:59.315Z,5.30
2019-03-23T02:05:27.756Z,5.20
2019-03-23T02:07:56.212Z,5.20
2019-03-23T02:10:24.659Z,5.20
2019-03-23T02:12:53.090Z,5.30
2019-03-23T02:15:21.551Z,5.30
2019-03-23T02:17:49.986Z,5.30
2019-03-23T02:20:18.427Z,5.30
2019-03-23T02:22:46.916Z,5.40
2019-03-23T02:25:15.354Z,5.40
2019-03-23T02:27:43.786Z,5.30
2019-03-23T02:30:13.225Z,5.30
2019-03-23T02:32:41.725Z,5.20
2019-03-23T02:35:10.562Z,5.10
2019-03-23T02:37:39.201Z,5.00
2019-03-23T02:40:09.643Z,5.10
2019-03-23T02:42:38.075Z,5.00
2019-03-23T02:45:09.784Z,4.90
2019-03-23T02:47:38.233Z,4.90
2019-03-23T02:50:08.327Z,4.80
2019-03-23T02:52:37.699Z,4.80
2019-03-23T02:55:09.919Z,4.70
2019-03-23T02:57:39.068Z,4.70
2019-03-23T03:00:10.627Z,4.70
2019-03-23T03:02:39.080Z,4.80
2019-03-23T03:05:08.650Z,4.80
2019-03-23T03:07:42.646Z,4.80
2019-03-23T03:10:09.954Z,4.80
2019-03-23T03:12:38.710Z,4.80
2019-03-23T03:15:08.278Z,4.70
2019-03-23T03:17:36.716Z,4.70
2019-03-23T03:20:08.052Z,4.70
2019-03-23T03:22:36.673Z,4.70
2019-03-23T03:25:07.738Z,4.60
2019-03-23T03:27:36.179Z,4.50
2019-03-23T03:30:06.979Z,4.50
2019-03-23T03:32:35.438Z,4.50
2019-03-23T03:35:05.471Z,4.40
2019-03-23T03:37:34.011Z,4.30
2019-03-23T03:40:02.481Z,4.30
2019-03-23T03:42:31.191Z,4.20
2019-03-23T03:44:59.668Z,4.20
2019-03-23T03:47:28.103Z,4.20
2019-03-23T03:49:56.564Z,4.20
2019-03-23T03:52:25.095Z,4.20
2019-03-23T03:54:53.524Z,4.20
2019-03-23T03:57:22.910Z,4.20
2019-03-23T03:59:51.509Z,4.30
2019-03-23T04:02:19.939Z,4.40
2019-03-23T04:04:48.385Z,4.40
2019-03-23T04:07:16.855Z,4.40
2019-03-23T04:09:45.334Z,4.40
2019-03-23T04:12:15.767Z,4.30
2019-03-23T04:14:44.389Z,4.30
2019-03-23T04:17:12.823Z,4.40
2019-03-23T04:19:41.259Z,4.30
2019-03-23T04:22:09.720Z,4.40
2019-03-23T04:24:38.491Z,4.40
2019-03-23T04:27:06.919Z,4.40
2019-03-23T04:29:35.745Z,4.40
2019-03-23T04:32:04.247Z,4.40
2019-03-23T04:34:32.695Z,4.40
2019-03-23T04:37:01.162Z,4.40
2019-03-23T04:39:29.892Z,4.30
2019-03-23T04:41:58.324Z,4.30
2019-03-23T04:44:26.791Z,4.30
2019-03-23T04:46:55.227Z,4.20
2019-03-23T04:49:23.664Z,4.20
2019-03-23T04:51:52.166Z,4.20
2019-03-23T04:54:20.613Z,4.10
2019-03-23T04:56:49.045Z,4.10
2019-03-23T04:59:17.875Z,4.10
2019-03-23T05:01:46.302Z,4.10
2019-03-23T05:04:14.745Z,4.00
2019-03-23T05:06:43.558Z,4.00
2019-03-23T05:09:11.990Z,4.00
2019-03-23T05:11:40.530Z,4.00
2019-03-23T05:14:08.994Z,4.00
2019-03-23T05:16:37.491Z,3.90
2019-03-23T05:19:05.925Z,3.90
2019-03-23T05:21:34.384Z,3.80
2019-03-23T05:24:02.828Z,3.90
2019-03-23T05:26:31.624Z,3.80
2019-03-23T05:29:00.086Z,3.80
2019-03-23T05:31:28.524Z,3.70
2019-03-23T05:33:56.959Z,3.70
2019-03-23T05:36:25.766Z,3.80
2019-03-23T05:38:54.203Z,3.70
2019-03-23T05:41:22.944Z,3.70
2019-03-23T05:43:51.462Z,3.70
2019-03-23T05:46:19.890Z,3.70
2019-03-23T05:48:48.318Z,3.70
2019-03-23T05:51:16.796Z,3.60
2019-03-23T05:53:45.290Z,3.60
2019-03-23T05:56:13.724Z,3.70
2019-03-23T05:58:42.183Z,3.60
2019-03-23T06:01:11.587Z,3.70
2019-03-23T06:03:40.023Z,3.70
2019-03-23T06:06:08.670Z,3.70
2019-03-23T06:08:37.110Z,3.70
2019-03-23T06:11:05.561Z,3.70
2019-03-23T06:13:34.022Z,3.80
2019-03-23T06:16:02.449Z,3.80
2019-03-23T06:18:30.883Z,3.80
2019-03-23T06:20:59.349Z,3.80
2019-03-23T06:23:28.223Z,3.80
2019-03-23T06:25:56.668Z,3.90
2019-03-23T06:28:25.145Z,3.90
2019-03-23T06:30:53.586Z,4.00
2019-03-23T06:33:22.034Z,4.10
2019-03-23T06:35:50.852Z,4.10
2019-03-23T06:38:19.296Z,4.20
2019-03-23T06:40:47.735Z,4.20
2019-03-23T06:43:16.370Z,4.30
2019-03-23T06:45:44.806Z,4.30
2019-03-23T06:48:13.239Z,4.40
2019-03-23T06:50:41.898Z,4.50
2019-03-23T06:53:10.384Z,4.60
2019-03-23T06:55:38.827Z,4.70
2019-03-23T06:58:07.290Z,4.80
2019-03-23T07:00:35.755Z,4.90
2019-03-23T07:03:04.184Z,5.00
2019-03-23T07:05:32.682Z,5.00
2019-03-23T07:08:01.217Z,5.10
2019-03-23T07:10:30.650Z,5.10
2019-03-23T07:12:59.201Z,5.20
2019-03-23T07:15:27.651Z,5.10
2019-03-23T07:17:56.091Z,5.20
2019-03-23T07:20:24.547Z,5.20
2019-03-23T07:22:54.857Z,5.30
2019-03-23T07:25:23.142Z,5.30
2019-03-23T07:27:51.607Z,5.40
2019-03-23T07:30:20.395Z,5.40
2019-03-23T07:32:48.831Z,5.50
2019-03-23T07:35:18.393Z,5.50
2019-03-23T07:37:46.818Z,5.60
2019-03-23T07:40:15.390Z,5.60
2019-03-23T07:42:43.864Z,5.70
2019-03-23T07:45:14.052Z,5.80
2019-03-23T07:47:42.548Z,5.90
2019-03-23T07:50:12.904Z,6.00
2019-03-23T07:52:41.422Z,6.10
2019-03-23T07:55:14.161Z,6.10
2019-03-23T07:57:43.051Z,6.20
2019-03-23T08:00:19.629Z,6.20
2019-03-23T08:02:48.263Z,6.30
2019-03-23T08:05:17.202Z,6.40
2019-03-23T08:07:45.812Z,6.40
2019-03-23T08:10:34.033Z,6.50
2019-03-23T08:13:02.978Z,6.60
2019-03-23T08:15:31.530Z,6.60
2019-03-23T08:18:00.103Z,6.70
2019-03-23T08:20:28.837Z,6.80
2019-03-23T08:22:57.270Z,6.80
2019-03-23T08:25:25.919Z,6.90
2019-03-23T08:27:54.435Z,7.00
2019-03-23T08:30:22.954Z,7.00
2019-03-23T08:32:51.415Z,7.10
2019-03-23T08:35:20.014Z,7.20
2019-03-23T08:37:48.790Z,7.30
2019-03-23T08:40:17.255Z,7.30
2019-03-23T08:42:45.831Z,7.50
2019-03-23T08:45:14.759Z,7.60
2019-03-23T08:47:43.239Z,7.60
2019-03-23T08:50:11.750Z,7.70
2019-03-23T08:52:40.187Z,7.80
2019-03-23T08:55:08.730Z,7.90
2019-03-23T08:57:37.340Z,8.00
2019-03-23T09:00:07.419Z,8.00
2019-03-23T09:02:35.991Z,8.10
2019-03-23T09:05:06.897Z,8.20
2019-03-23T09:07:40.118Z,8.20
2019-03-23T09:10:10.398Z,8.30
2019-03-23T09:12:41.828Z,8.40
2019-03-23T09:15:10.391Z,8.40
2019-03-23T09:17:38.895Z,8.50
2019-03-23T09:20:09.966Z,8.60
2019-03-23T09:22:38.590Z,8.60
2019-03-23T09:25:07.971Z,8.70
2019-03-23T09:27:36.401Z,8.80
2019-03-23T09:30:10.067Z,8.90
2019-03-23T09:32:38.551Z,9.00
2019-03-23T09:35:07.254Z,9.10
2019-03-23T09:37:38.048Z,9.20
2019-03-23T09:40:11.051Z,9.30
2019-03-23T09:42:36.978Z,9.40
2019-03-23T09:45:08.210Z,9.50
2019-03-23T09:47:37.126Z,9.50
2019-03-23T09:50:08.038Z,9.60
2019-03-23T09:52:36.800Z,9.70
2019-03-23T09:55:06.735Z,9.80
2019-03-23T09:57:35.264Z,10.00
2019-03-23T10:00:06.058Z,10.10
2019-03-23T10:02:34.859Z,10.20
2019-03-23T10:05:04.359Z,10.30
2019-03-23T10:07:32.808Z,10.40
2019-03-23T10:10:01.265Z,10.50
2019-03-23T10:12:30.744Z,10.50
2019-03-23T10:14:59.533Z,10.60
2019-03-23T10:17:28.018Z,10.60
2019-03-23T10:19:56.445Z,10.60
2019-03-23T10:22:24.910Z,10.70
2019-03-23T10:24:53.383Z,10.80
2019-03-23T10:27:21.826Z,11.00
2019-03-23T10:29:50.269Z,11.10
2019-03-23T10:32:18.758Z,11.20
2019-03-23T10:34:47.199Z,11.30
2019-03-23T10:37:15.634Z,11.30
2019-03-23T10:39:44.112Z,11.40
2019-03-23T10:42:12.871Z,11.50
2019-03-23T10:44:41.306Z,11.60
2019-03-23T10:47:09.775Z,11.70
2019-03-23T10:49:38.354Z,11.80
2019-03-23T10:52:06.846Z,11.80
2019-03-23T10:54:35.322Z,11.90
2019-03-23T10:57:03.762Z,11.90
2019-03-23T10:59:32.198Z,12.00
2019-03-23T11:02:00.665Z,12.10
2019-03-23T11:04:29.102Z,12.20
2019-03-23T11:06:57.543Z,12.30
2019-03-23T11:09:26.022Z,12.30
2019-03-23T11:11:54.462Z,12.40
2019-03-23T11:14:22.903Z,12.50
2019-03-23T11:16:51.376Z,12.60
2019-03-23T11:19:19.823Z,12.70
2019-03-23T11:21:48.255Z,12.70
2019-03-23T11:24:16.733Z,12.70
2019-03-23T11:26:45.238Z,12.80
2019-03-23T11:29:13.686Z,13.00
2019-03-23T11:31:42.163Z,13.00
2019-03-23T11:34:17.886Z,13.10
2019-03-23T11:36:40.771Z,13.30
2019-03-23T11:39:09.335Z,13.30
2019-03-23T11:41:37.771Z,13.30
2019-03-23T11:44:06.278Z,13.40
2019-03-23T11:46:35.023Z,13.50
2019-03-23T11:49:03.470Z,13.50
2019-03-23T11:51:31.910Z,13.50
2019-03-23T11:54:00.381Z,13.60
2019-03-23T11:56:30.573Z,13.60
2019-03-23T11:58:59.019Z,13.80
2019-03-23T12:01:27.499Z,13.90
2019-03-23T12:03:55.939Z,13.90
2019-03-23T12:06:24.459Z,14.10
2019-03-23T12:08:52.936Z,14.10
2019-03-23T12:11:21.386Z,14.20
2019-03-23T12:13:49.871Z,14.30
2019-03-23T12:16:18.388Z,14.40
2019-03-23T12:18:46.827Z,14.50
2019-03-23T12:21:15.311Z,14.60
2019-03-23T12:23:43.762Z,14.70
2019-03-23T12:26:12.543Z,14.90
2019-03-23T12:28:41.074Z,15.00
2019-03-23T12:31:09.507Z,15.10
2019-03-23T12:33:37.948Z,15.10
2019-03-23T12:36:06.435Z,15.30
2019-03-23T12:38:34.870Z,15.60
2019-03-23T12:41:14.180Z,15.90
2019-03-23T12:43:33.507Z,16.10
2019-03-23T12:46:01.943Z,16.30
2019-03-23T12:48:30.385Z,16.40
2019-03-23T12:50:58.874Z,16.50
2019-03-23T12:53:27.323Z,16.60
2019-03-23T12:55:55.769Z,16.80
2019-03-23T12:58:24.586Z,16.90
2019-03-23T13:00:53.030Z,16.90
2019-03-23T13:03:21.769Z,16.80
2019-03-23T13:05:50.253Z,16.50
2019-03-23T13:08:18.690Z,16.40
2019-03-23T13:10:47.130Z,16.10
2019-03-23T13:13:15.608Z,15.80
2019-03-23T13:15:44.050Z,15.80
2019-03-23T13:18:12.482Z,15.70
2019-03-23T13:20:40.981Z,15.70
2019-03-23T13:23:09.425Z,15.70
2019-03-23T13:25:37.861Z,15.70
2019-03-23T13:28:06.336Z,15.60
2019-03-23T13:30:34.775Z,15.70
2019-03-23T13:33:03.216Z,15.70
2019-03-23T13:35:31.695Z,15.70
2019-03-23T13:38:00.134Z,15.70
2019-03-23T13:40:28.575Z,15.70
2019-03-23T13:42:58.683Z,15.80
2019-03-23T13:45:27.200Z,15.90
2019-03-23T13:47:55.644Z,15.90
2019-03-23T13:50:28.814Z,16.00
2019-03-23T13:52:57.481Z,16.10
2019-03-23T13:55:29.078Z,16.20
2019-03-23T13:58:00.626Z,16.30
2019-03-23T14:00:29.406Z,16.20
2019-03-23T14:02:57.850Z,16.30
2019-03-23T14:05:26.331Z,16.40
2019-03-23T14:07:54.770Z,16.40
2019-03-23T14:10:23.206Z,16.70
2019-03-23T14:12:51.691Z,17.40
2019-03-23T14:15:20.129Z,18.30
2019-03-23T14:17:48.574Z,19.30
2019-03-23T14:20:17.042Z,20.10
2019-03-23T14:22:45.473Z,20.70
2019-03-23T14:25:13.908Z,21.40
2019-03-23T14:27:42.494Z,21.60
2019-03-23T14:30:11.161Z,22.10
2019-03-23T14:32:39.601Z,22.40
2019-03-23T14:35:08.933Z,22.90
2019-03-23T14:37:37.370Z,23.40
2019-03-23T14:40:06.650Z,23.70
2019-03-23T14:42:36.053Z,24.10
2019-03-23T14:45:06.236Z,24.50
2019-03-23T14:47:34.673Z,24.70
2019-03-23T14:50:03.639Z,24.90
2019-03-23T14:52:32.079Z,25.20
2019-03-23T14:55:00.518Z,25.40
2019-03-23T14:57:28.994Z,25.50
2019-03-23T14:59:57.507Z,25.70
2019-03-23T15:02:26.071Z,26.00
2019-03-23T15:04:54.542Z,26.00
2019-03-23T15:07:22.965Z,26.10
2019-03-23T15:09:51.394Z,25.50
2019-03-23T15:12:19.870Z,25.90
2019-03-23T15:14:48.445Z,26.10
2019-03-23T15:17:16.923Z,26.20
2019-03-23T15:19:45.927Z,26.30
2019-03-23T15:22:14.583Z,26.20
2019-03-23T15:24:43.051Z,26.60
2019-03-23T15:27:11.518Z,26.80
2019-03-23T15:29:39.946Z,26.80
2019-03-23T15:32:08.918Z,26.70
2019-03-23T15:34:37.435Z,26.80
2019-03-23T15:37:05.892Z,26.80
2019-03-23T15:39:34.374Z,26.80
2019-03-23T15:42:02.851Z,27.00
2019-03-23T15:44:31.547Z,26.60
2019-03-23T15:46:59.987Z,26.20
2019-03-23T15:49:28.538Z,26.30
2019-03-23T15:51:56.994Z,26.70
2019-03-23T15:54:25.817Z,27.00
2019-03-23T15:56:54.312Z,27.20
2019-03-23T15:59:22.745Z,27.30
2019-03-23T16:01:51.181Z,27.30
2019-03-23T16:04:20.599Z,26.90
2019-03-23T16:06:49.022Z,26.10
2019-03-23T16:09:17.826Z,25.00
2019-03-23T16:11:46.735Z,23.90
2019-03-23T16:14:15.596Z,23.20
2019-03-23T16:16:44.026Z,22.40
2019-03-23T16:19:12.615Z,21.80
2019-03-23T16:21:41.050Z,21.50
2019-03-23T16:24:09.562Z,21.20
2019-03-23T16:26:38.022Z,20.90
2019-03-23T16:29:06.710Z,21.00
2019-03-23T16:31:35.548Z,20.80
2019-03-23T16:34:04.174Z,20.40
2019-03-23T16:36:32.684Z,20.40
2019-03-23T16:39:01.451Z,20.30
2019-03-23T16:41:30.946Z,20.20
2019-03-23T16:43:59.676Z,20.10
2019-03-23T16:46:28.115Z,19.80
2019-03-23T16:48:56.616Z,19.60
2019-03-23T16:51:25.063Z,19.60
2019-03-23T16:53:53.700Z,19.60
2019-03-23T16:56:22.184Z,19.40
2019-03-23T16:58:50.994Z,19.20
2019-03-23T17:01:19.991Z,19.20
2019-03-23T17:03:48.626Z,19.20
2019-03-23T17:06:17.400Z,19.10
2019-03-23T17:08:45.827Z,19.00
2019-03-23T17:11:14.293Z,19.00
2019-03-23T17:13:42.730Z,18.70
2019-03-23T17:16:11.165Z,18.30
2019-03-23T17:18:39.640Z,17.80
2019-03-23T17:21:08.075Z,17.40
2019-03-23T17:23:36.790Z,17.10
2019-03-23T17:26:05.270Z,16.90
2019-03-23T17:28:33.697Z,16.70
2019-03-23T17:31:02.139Z,16.50
2019-03-23T17:33:30.601Z,16.20
2019-03-23T17:36:00.276Z,16.00
2019-03-23T17:38:28.852Z,15.80
2019-03-23T17:40:57.579Z,15.50
2019-03-23T17:43:26.002Z,15.40
2019-03-23T17:45:54.444Z,15.20
2019-03-23T17:48:23.851Z,15.10
2019-03-23T17:50:52.577Z,15.00
2019-03-23T17:53:21.087Z,15.00
2019-03-23T17:55:49.558Z,14.90
2019-03-23T17:58:18.006Z,14.80
2019-03-23T18:00:46.445Z,14.80
2019-03-23T18:03:14.914Z,14.70
2019-03-23T18:05:43.354Z,14.70
2019-03-23T18:08:12.077Z,14.60
2019-03-23T18:10:40.552Z,14.50
2019-03-23T18:13:16.433Z,14.40
2019-03-23T18:15:39.157Z,14.40
2019-03-23T18:18:07.635Z,14.30
2019-03-23T18:20:36.430Z,14.20
2019-03-23T18:23:05.047Z,14.00
2019-03-23T18:25:33.531Z,13.80
2019-03-23T18:28:02.042Z,13.70
2019-03-23T18:30:39.192Z,13.50
2019-03-23T18:33:08.253Z,13.50
2019-03-23T18:35:38.614Z,13.20
2019-03-23T18:38:07.406Z,13.10
2019-03-23T18:40:36.330Z,13.00
2019-03-23T18:43:05.730Z,12.90
2019-03-23T18:45:35.847Z,12.80
2019-03-23T18:48:04.978Z,12.80
2019-03-23T18:50:33.513Z,12.80
2019-03-23T18:53:02.012Z,12.90
2019-03-23T18:55:30.950Z,12.90
2019-03-23T18:57:59.391Z,12.90
2019-03-23T19:00:33.045Z,12.80
2019-03-23T19:03:02.526Z,12.80
2019-03-23T19:05:31.114Z,12.80
2019-03-23T19:07:59.612Z,12.70
2019-03-23T19:10:28.311Z,12.70
2019-03-23T19:12:56.803Z,12.60
2019-03-23T19:15:25.266Z,12.50
2019-03-23T19:17:54.119Z,12.40
2019-03-23T19:20:22.782Z,12.30
2019-03-23T19:22:51.611Z,12.20
2019-03-23T19:25:20.287Z,12.20
2019-03-23T19:27:49.651Z,12.20
2019-03-23T19:32:53.017Z,12.10
2019-03-23T19:35:21.628Z,12.00
2019-03-23T19:37:50.593Z,12.00
2019-03-23T19:40:19.356Z,11.90
2019-03-23T19:42:47.882Z,11.90
2019-03-23T19:45:16.395Z,11.80
2019-03-23T19:47:44.885Z,11.70
2019-03-23T19:50:14.080Z,11.70
2019-03-23T19:52:42.547Z,11.60
2019-03-23T19:55:11.662Z,11.50
2019-03-23T20:54:17.401Z,10.30
2019-03-23T20:56:45.983Z,10.30
2019-03-23T20:59:14.490Z,10.20
2019-03-23T21:01:43.128Z,10.10
2019-03-23T21:04:11.569Z,10.00
2019-03-23T21:06:40.016Z,10.00
2019-03-23T21:09:08.598Z,9.90
2019-03-23T21:11:37.154Z,9.90
2019-03-23T21:14:05.667Z,9.90
2019-03-23T21:16:34.283Z,9.90
2019-03-23T21:19:02.744Z,9.90
2019-03-23T21:21:31.346Z,9.80
2019-03-23T21:24:00.126Z,9.80
2019-03-23T21:26:28.836Z,9.80
2019-03-23T21:28:57.604Z,9.80
2019-03-23T21:31:26.069Z,9.80
2019-03-23T21:33:54.513Z,9.80
2019-03-23T21:36:23.291Z,9.80
2019-03-23T21:38:52.102Z,9.70
2019-03-23T21:41:20.623Z,9.60
2019-03-23T21:43:49.155Z,9.60
2019-03-23T21:46:17.606Z,9.50
2019-03-23T21:48:46.042Z,9.50
2019-03-23T21:51:14.808Z,9.50
2019-03-23T21:53:43.282Z,9.50
2019-03-23T21:56:11.748Z,9.50
2019-03-23T21:58:40.268Z,9.40
2019-03-23T22:01:08.742Z,9.40
2019-03-23T22:03:37.174Z,9.30
2019-03-23T22:06:05.894Z,9.30
2019-03-23T22:08:34.398Z,9.30
2019-03-23T22:11:02.824Z,9.20
2019-03-23T22:13:31.275Z,9.20
2019-03-23T22:15:59.749Z,9.20
2019-03-23T22:18:28.177Z,9.20
2019-03-23T22:20:58.263Z,9.20
2019-03-23T22:23:26.734Z,9.20
2019-03-23T22:25:55.180Z,9.10
2019-03-23T22:28:23.625Z,9.00
2019-03-23T22:30:52.098Z,9.00
2019-03-23T22:33:20.528Z,9.00
2019-03-23T22:35:48.974Z,9.00
2019-03-23T22:38:17.449Z,8.90
2019-03-23T22:40:45.954Z,8.90
2019-03-23T22:43:14.395Z,8.80
2019-03-23T22:45:42.945Z,8.80
2019-03-23T22:48:11.418Z,8.80
2019-03-23T22:50:39.871Z,8.80
2019-03-23T22:53:08.393Z,8.90
2019-03-23T22:55:36.838Z,8.90
2019-03-23T22:58:05.266Z,8.90
2019-03-23T23:00:41.642Z,8.80
2019-03-23T23:03:10.510Z,8.80
2019-03-23T23:05:39.018Z,8.90
2019-03-23T23:08:07.730Z,8.90
2019-03-23T23:10:36.655Z,8.80
2019-03-23T23:13:05.445Z,8.80
2019-03-23T23:15:34.442Z,8.80
2019-03-23T23:18:02.879Z,8.70
2019-03-23T23:20:31.378Z,8.70
2019-03-23T23:22:59.856Z,8.60
2019-03-23T23:25:28.291Z,8.60
2019-03-23T23:27:56.727Z,8.60
2019-03-23T23:30:25.338Z,8.50
2019-03-23T23:32:53.770Z,8.50
2019-03-23T23:35:22.350Z,8.50
2019-03-23T23:37:51.225Z,8.50
2019-03-23T23:40:19.660Z,8.40
2019-03-23T23:42:48.124Z,8.30
2019-03-23T23:45:16.660Z,8.30
2019-03-23T23:47:45.096Z,8.10
2019-03-23T23:50:13.698Z,8.10
2019-03-23T23:52:42.738Z,8.10
2019-03-23T23:55:11.246Z,8.00
2019-03-23T23:57:39.669Z,7.90
